Terminal Aerodrome Forecast
Issued by NWS Jacksonville, FL

Home | Current Version | Previous Version | Text Only | Print | Product List | Glossary On
Versions: 1 2 3 4 5 6 7 8 9 10 11 12 13 14 15 16 17
584
FTUS42 KJAX 261729
TAFGNV
TAF
KGNV 261729Z 2618/2718 31006KT P6SM VCTS BKN040CB BKN250
      TEMPO 2618/2622 VRB15G25KT 2SM +TSRA BR OVC035CB
     FM270200 05002KT P6SM VCSH SCT100 BKN250
     FM271600 04004KT P6SM VCTS BKN035CB=

USA.gov is the U.S. government's official web portal to all federal, state and local government web resources and services.